Time;durP1;ratioP1;P1;durP2;ratioP2;P2;SDS_P1;SDS_P2;PMS_P1;PMS_P2;Temp;Humidity;BMP_temperature;BMP_pressure;BME280_temperature;BME280_humidity;BME280_pressure;Samples;Min_cycle;Max_cycle;Signal;HPM_P1;HPM_P2
2022/01/29 00:01:49;;;;;;;18.27;14.60;;;;;;;7.41;56.00;99426.41;8417024;28;20239;-85
2022/01/29 00:05:53;;;;;;;20.43;14.80;;;;;;;7.03;57.30;99424.97;8418387;28;20254;-84
2022/01/29 00:10:02;;;;;;;21.17;14.83;;;;;;;7.02;57.20;99408.63;8418124;28;20424;-84
2022/01/29 00:14:06;;;;;;;21.13;15.30;;;;;;;7.21;56.71;99413.66;8418139;28;20231;-85
2022/01/29 00:18:11;;;;;;;18.33;14.00;;;;;;;7.04;57.22;99401.78;8417749;28;20286;-85
2022/01/29 00:22:14;;;;;;;17.40;14.37;;;;;;;7.14;56.60;99389.69;8417456;28;20231;-85
2022/01/29 00:26:21;;;;;;;16.17;14.13;;;;;;;6.90;57.28;99375.25;8416556;28;20227;-85
2022/01/29 00:30:30;;;;;;;17.67;14.13;;;;;;;7.28;56.45;99384.41;8417816;28;20552;-85
2022/01/29 00:34:34;;;;;;;20.43;15.07;;;;;;;6.84;57.44;99375.31;8416985;28;20219;-84
2022/01/29 00:38:37;;;;;;;20.27;15.43;;;;;;;6.76;57.88;99365.06;8416759;28;20235;-85
2022/01/29 00:42:41;;;;;;;20.83;15.23;;;;;;;7.01;57.22;99367.47;8417121;28;20440;-85
2022/01/29 00:46:44;;;;;;;20.13;14.73;;;;;;;6.94;57.22;99358.06;8416975;28;20242;-85
2022/01/29 00:50:49;;;;;;;16.60;13.40;;;;;;;7.08;56.64;99351.06;8416607;28;20412;-84
2022/01/29 00:54:53;;;;;;;18.30;13.43;;;;;;;7.07;56.96;99362.25;8415585;28;20497;-84
2022/01/29 00:58:56;;;;;;;17.43;12.67;;;;;;;6.91;57.41;99369.25;8416531;28;20230;-84
2022/01/29 01:02:59;;;;;;;16.07;12.47;;;;;;;7.06;56.92;99347.66;8415653;28;20231;-85
2022/01/29 01:07:04;;;;;;;16.23;13.37;;;;;;;7.23;56.32;99360.41;8416285;28;20237;-84
2022/01/29 01:11:07;;;;;;;16.30;13.07;;;;;;;6.99;56.66;99357.16;8418514;28;20227;-83
2022/01/29 01:15:11;;;;;;;16.07;13.30;;;;;;;7.19;56.47;99357.00;8415752;28;20234;-83
2022/01/29 01:19:14;;;;;;;17.93;12.30;;;;;;;7.20;56.73;99360.44;8415589;28;20407;-84
2022/01/29 01:23:18;;;;;;;17.93;12.83;;;;;;;7.09;56.92;99364.84;8415593;28;20408;-85
2022/01/29 01:27:21;;;;;;;17.90;13.70;;;;;;;7.07;57.02;99369.16;8415672;28;20227;-84
2022/01/29 01:31:25;;;;;;;17.37;13.90;;;;;;;7.03;57.04;99353.69;8415087;28;20234;-84
2022/01/29 01:35:32;;;;;;;19.17;13.73;;;;;;;7.27;56.41;99350.94;8415528;28;20230;-84
2022/01/29 01:39:39;;;;;;;16.23;13.47;;;;;;;7.14;56.69;99345.00;8414887;28;20226;-84
2022/01/29 01:43:42;;;;;;;18.10;13.20;;;;;;;7.05;57.19;99344.22;8416149;28;20234;-85
2022/01/29 01:47:45;;;;;;;17.43;13.50;;;;;;;6.95;56.75;99327.16;8416840;28;20249;-84
2022/01/29 01:51:49;;;;;;;16.40;13.40;;;;;;;7.03;57.19;99340.81;8416858;28;20230;-84
2022/01/29 01:55:54;;;;;;;16.23;13.37;;;;;;;6.96;57.53;99333.16;8416701;28;20388;-83
2022/01/29 01:59:57;;;;;;;15.73;13.87;;;;;;;6.92;57.53;99334.91;8414049;28;20226;-84
2022/01/29 02:03:59;;;;;;;17.00;13.33;;;;;;;6.96;57.30;99322.84;8415034;28;20238;-84
2022/01/29 02:08:03;;;;;;;18.97;14.53;;;;;;;7.08;57.24;99309.00;8415119;28;20254;-84
2022/01/29 02:12:10;;;;;;;15.97;13.43;;;;;;;7.14;56.82;99298.66;8414110;28;20233;-84
2022/01/29 02:16:13;;;;;;;16.73;13.07;;;;;;;7.21;56.84;99300.31;8414369;28;20241;-85
2022/01/29 02:20:18;;;;;;;17.27;13.80;;;;;;;7.04;57.11;99288.44;8414163;28;20249;-84
2022/01/29 02:24:23;;;;;;;17.80;14.10;;;;;;;7.07;57.20;99284.13;8414018;28;20233;-84
2022/01/29 02:28:26;;;;;;;21.37;14.40;;;;;;;7.27;56.32;99281.34;8414123;28;20226;-84
2022/01/29 02:32:29;;;;;;;17.23;14.00;;;;;;;7.12;56.80;99267.78;8413851;28;20230;-84
2022/01/29 02:36:33;;;;;;;18.30;14.10;;;;;;;6.96;56.89;99263.63;8413688;28;20227;-84
2022/01/29 02:40:45;;;;;;;16.87;13.83;;;;;;;7.28;56.48;99250.41;8413695;28;20525;-82
2022/01/29 02:44:48;;;;;;;16.83;13.90;;;;;;;7.13;56.30;99229.97;8413685;28;20336;-81
2022/01/29 02:48:53;;;;;;;19.53;14.53;;;;;;;6.97;57.05;99230.13;8413662;28;20250;-82
2022/01/29 02:52:56;;;;;;;17.77;14.07;;;;;;;7.05;56.96;99215.44;8413542;28;20240;-81
2022/01/29 02:57:00;;;;;;;17.30;13.10;;;;;;;7.19;56.48;99199.81;8413637;28;20230;-82
2022/01/29 03:01:04;;;;;;;16.97;12.80;;;;;;;7.12;56.51;99205.94;8413619;28;20537;-81
2022/01/29 03:05:08;;;;;;;18.17;13.00;;;;;;;7.17;56.39;99199.00;8413325;28;20234;-82
2022/01/29 03:09:11;;;;;;;15.60;12.90;;;;;;;7.13;56.33;99194.75;8413788;28;20231;-82
2022/01/29 03:13:15;;;;;;;16.10;12.60;;;;;;;7.00;56.50;99188.88;8413589;28;20242;-81
2022/01/29 03:17:18;;;;;;;14.93;12.43;;;;;;;6.98;56.83;99193.19;8413628;28;20227;-82
2022/01/29 03:21:21;;;;;;;16.80;11.53;;;;;;;6.92;56.49;99180.38;8413495;28;20230;-82
2022/01/29 03:25:24;;;;;;;13.70;11.43;;;;;;;6.78;57.02;99159.91;8414098;28;20231;-82
2022/01/29 03:29:29;;;;;;;13.53;10.30;;;;;;;6.72;56.76;99156.53;8419680;28;20227;-82
2022/01/29 03:33:32;;;;;;;14.33;10.40;;;;;;;7.00;56.14;99162.25;8419122;28;20227;-82
2022/01/29 03:37:35;;;;;;;11.30;10.10;;;;;;;7.05;56.10;99169.06;8419217;28;20226;-82
2022/01/29 03:41:38;;;;;;;12.40;9.43;;;;;;;6.78;56.34;99159.91;8419248;28;20241;-82
2022/01/29 03:45:43;;;;;;;15.90;10.17;;;;;;;6.96;56.18;99150.28;8418392;28;20280;-82
2022/01/29 03:49:46;;;;;;;12.23;9.73;;;;;;;6.97;55.68;99157.16;8418737;28;20239;-82
2022/01/29 03:53:49;;;;;;;12.53;9.30;;;;;;;6.85;56.12;99174.44;8418638;28;20234;-83
2022/01/29 03:57:52;;;;;;;13.73;9.90;;;;;;;6.93;56.04;99171.78;8419268;28;20223;-82
2022/01/29 04:01:56;;;;;;;12.83;10.10;;;;;;;6.89;55.91;99169.25;8418403;28;20234;-81
2022/01/29 04:05:59;;;;;;;14.60;9.87;;;;;;;6.80;56.49;99152.19;8418012;28;20227;-82
2022/01/29 04:10:04;;;;;;;12.70;9.30;;;;;;;6.99;56.17;99145.97;8417938;28;20241;-82
2022/01/29 04:14:14;;;;;;;12.20;9.40;;;;;;;6.76;56.36;99135.91;8417731;28;20231;-83
2022/01/29 04:18:19;;;;;;;15.17;10.13;;;;;;;6.73;56.86;99137.66;8417930;28;20494;-83
2022/01/29 04:22:22;;;;;;;12.57;9.90;;;;;;;6.85;56.17;99137.53;8417343;28;20231;-83
2022/01/29 04:26:25;;;;;;;13.13;10.10;;;;;;;6.67;57.04;99133.44;8417550;28;20233;-83
2022/01/29 04:30:30;;;;;;;13.23;10.17;;;;;;;6.40;57.80;99122.53;8417518;28;20230;-84
2022/01/29 04:34:35;;;;;;;11.63;9.77;;;;;;;6.71;56.82;99124.81;8417093;28;20238;-83
2022/01/29 04:38:39;;;;;;;15.60;9.60;;;;;;;6.91;56.24;99110.84;8416064;28;20227;-82
2022/01/29 04:42:42;;;;;;;11.10;9.80;;;;;;;6.90;56.39;99106.59;8416914;28;20428;-82
2022/01/29 04:46:45;;;;;;;13.33;10.20;;;;;;;6.75;56.99;99100.72;8416901;28;20526;-82
2022/01/29 04:50:50;;;;;;;13.67;10.67;;;;;;;6.65;56.90;99101.69;8416865;28;20241;-82
2022/01/29 04:54:53;;;;;;;13.43;11.23;;;;;;;6.78;56.69;99087.00;8417034;28;20239;-82
2022/01/29 04:58:56;;;;;;;16.67;11.53;;;;;;;6.53;57.18;99083.78;8416301;28;20545;-82
2022/01/29 05:03:09;;;;;;;13.80;11.50;;;;;;;6.55;56.92;99079.47;8416268;28;20237;-82
2022/01/29 05:07:13;;;;;;;13.77;11.53;;;;;;;6.66;56.83;99067.34;8416593;28;20237;-82
2022/01/29 05:11:18;;;;;;;15.43;11.77;;;;;;;6.69;57.14;99067.34;8416121;28;20557;-82
2022/01/29 05:15:28;;;;;;;14.33;11.30;;;;;;;6.78;56.68;99069.81;8415705;28;20230;-82
2022/01/29 05:28:12;;;;;;;15.93;12.97;;;;;;;6.67;57.31;99063.06;8415422;28;20233;-83
2022/01/29 05:32:16;;;;;;;14.80;11.87;;;;;;;6.53;57.97;99052.91;8415272;28;20262;-80
2022/01/29 05:36:19;;;;;;;16.13;12.57;;;;;;;6.80;57.12;99041.47;8414507;28;20549;-81
2022/01/29 05:40:23;;;;;;;14.47;11.80;;;;;;;6.79;56.83;99034.59;8415119;28;20223;-82
2022/01/29 05:44:26;;;;;;;13.63;12.10;;;;;;;6.81;56.82;99035.44;8414920;28;20244;-81
2022/01/29 05:48:29;;;;;;;13.63;12.20;;;;;;;7.05;56.08;99037.72;8414395;28;20231;-82
2022/01/29 05:52:33;;;;;;;13.93;12.53;;;;;;;6.83;56.65;99029.41;8414267;28;20230;-82
2022/01/29 05:56:40;;;;;;;13.67;12.27;;;;;;;6.83;56.57;99028.53;8414716;28;20231;-82
2022/01/29 06:00:44;;;;;;;13.40;12.00;;;;;;;6.72;57.45;99028.69;8413219;28;20237;-82
2022/01/29 06:04:47;;;;;;;16.30;12.80;;;;;;;6.85;57.10;99027.69;8414250;28;20397;-82
2022/01/29 06:08:50;;;;;;;12.70;11.43;;;;;;;6.85;56.97;99035.41;8414438;28;20235;-82
2022/01/29 06:13:03;;;;;;;15.57;13.63;;;;;;;6.69;57.73;99035.59;8414154;28;20237;-82
2022/01/29 06:17:06;;;;;;;14.83;12.97;;;;;;;6.73;57.55;99032.13;8414179;28;20231;-82
2022/01/29 06:21:11;;;;;;;16.80;13.77;;;;;;;6.54;58.25;99028.91;8414283;28;20233;-81
2022/01/29 06:25:14;;;;;;;17.03;14.10;;;;;;;6.51;58.32;99011.78;8414314;28;20241;-81
2022/01/29 06:29:19;;;;;;;16.57;14.07;;;;;;;6.55;58.16;99016.00;8414271;28;20231;-81
2022/01/29 06:33:22;;;;;;;15.73;13.60;;;;;;;6.71;58.16;99024.41;8414084;28;20250;-82
2022/01/29 06:37:25;;;;;;;17.13;14.47;;;;;;;6.57;58.27;99013.44;8414276;28;20241;-81
2022/01/29 06:41:28;;;;;;;15.77;14.10;;;;;;;6.64;58.16;99017.59;8413850;28;20238;-81
2022/01/29 06:45:33;;;;;;;18.13;14.77;;;;;;;6.41;58.98;99013.56;8413546;28;20233;-81
2022/01/29 06:49:36;;;;;;;18.50;15.30;;;;;;;6.46;58.79;99010.97;8413833;28;20234;-81
2022/01/29 06:53:39;;;;;;;18.20;15.43;;;;;;;6.51;58.47;99001.47;8413403;28;20241;-81
2022/01/29 06:57:42;;;;;;;16.40;14.53;;;;;;;6.52;58.67;99004.91;8413796;28;20423;-81
2022/01/29 07:02:06;;;;;;;17.43;14.77;;;;;;;6.50;58.53;99009.22;8416865;28;20233;-81
2022/01/29 07:06:09;;;;;;;18.57;14.40;;;;;;;6.26;59.82;98999.19;8419834;28;20246;-80
2022/01/29 07:10:13;;;;;;;16.37;14.30;;;;;;;6.36;58.66;98999.06;8419882;28;20529;-81
2022/01/29 07:14:17;;;;;;;17.27;13.80;;;;;;;6.54;58.93;98988.56;8419766;28;20230;-80
2022/01/29 07:18:22;;;;;;;18.33;13.73;;;;;;;6.44;58.72;98986.97;8419881;28;20230;-80
2022/01/29 07:22:25;;;;;;;18.40;14.40;;;;;;;6.31;59.15;98980.25;8419557;28;20233;-81
2022/01/29 07:26:28;;;;;;;16.53;14.10;;;;;;;6.42;59.28;98974.13;8419464;28;20230;-80
2022/01/29 07:30:32;;;;;;;15.63;13.33;;;;;;;6.63;58.69;98985.03;8418962;28;20223;-81
2022/01/29 07:34:36;;;;;;;17.20;15.13;;;;;;;6.52;58.76;98989.47;8419075;28;20332;-82
2022/01/29 07:38:39;;;;;;;17.47;15.37;;;;;;;6.66;58.63;98992.69;8418626;28;20237;-81
2022/01/29 07:42:42;;;;;;;17.90;15.23;;;;;;;6.40;59.36;98996.44;8418541;28;20238;-82
2022/01/29 07:46:45;;;;;;;17.40;14.67;;;;;;;6.48;58.95;98998.94;8418440;28;20235;-81
2022/01/29 07:50:50;;;;;;;18.87;15.10;;;;;;;6.23;59.54;98999.19;8419057;28;20230;-81
2022/01/29 07:54:53;;;;;;;19.13;15.10;;;;;;;6.49;59.23;98998.03;8418725;28;20226;-81
2022/01/29 07:58:56;;;;;;;19.70;15.40;;;;;;;6.34;59.52;98999.09;8418052;28;20341;-81
2022/01/29 08:02:59;;;;;;;18.00;15.77;;;;;;;6.42;59.36;98988.72;8418518;28;20241;-81
2022/01/29 08:07:04;;;;;;;17.50;15.50;;;;;;;6.53;59.37;98997.16;8418444;28;20226;-81
2022/01/29 08:11:07;;;;;;;17.67;15.80;;;;;;;6.59;58.90;98985.94;8418485;28;20231;-85
2022/01/29 08:15:11;;;;;;;16.33;14.53;;;;;;;6.38;59.90;98987.06;8417668;28;20418;-85
2022/01/29 08:19:14;;;;;;;18.07;15.37;;;;;;;6.58;59.44;98982.50;8418250;28;20237;-85
2022/01/29 08:23:18;;;;;;;16.60;14.67;;;;;;;6.44;59.79;98964.66;8417016;28;20429;-85
2022/01/29 08:27:22;;;;;;;16.83;14.80;;;;;;;6.23;60.22;98957.19;8415416;28;20560;-85
2022/01/29 08:31:25;;;;;;;16.30;14.53;;;;;;;6.33;60.25;98945.91;8430655;28;20222;-84
2022/01/29 08:35:28;;;;;;;15.80;13.50;;;;;;;6.22;60.46;98935.75;8433077;28;20508;-85
2022/01/29 08:39:34;;;;;;;14.97;13.37;;;;;;;6.34;60.17;98936.47;8430433;28;20289;-85
2022/01/29 08:43:37;;;;;;;15.80;13.20;;;;;;;6.39;60.08;98920.09;8431620;28;20222;-84
2022/01/29 08:47:41;;;;;;;15.43;13.47;;;;;;;6.24;60.49;98922.88;8433153;28;20238;-85
2022/01/29 08:51:44;;;;;;;17.83;13.10;;;;;;;6.21;60.20;98918.63;8432716;28;20226;-83
2022/01/29 08:55:49;;;;;;;15.37;13.47;;;;;;;6.42;60.28;98914.94;8432558;28;20423;-82
2022/01/29 08:59:52;;;;;;;15.40;12.33;;;;;;;6.57;59.74;98919.03;8427601;28;20237;-81
2022/01/29 09:03:55;;;;;;;15.50;12.33;;;;;;;6.49;60.14;98927.72;8431544;28;20233;-82
2022/01/29 09:07:59;;;;;;;15.00;13.10;;;;;;;6.43;60.53;98919.19;8434036;28;20237;-82
2022/01/29 09:12:04;;;;;;;15.37;13.17;;;;;;;6.41;60.19;98920.94;8432262;28;20569;-82
2022/01/29 09:16:07;;;;;;;14.50;11.83;;;;;;;6.49;59.80;98927.72;8431840;28;20231;-82
2022/01/29 09:20:11;;;;;;;14.80;12.07;;;;;;;6.42;59.85;98927.81;8429301;28;20226;-82
2022/01/29 09:24:14;;;;;;;14.17;11.97;;;;;;;6.36;60.60;98927.00;8430529;28;20436;-82
2022/01/29 09:28:18;;;;;;;16.60;12.43;;;;;;;6.47;59.94;98920.00;8422884;28;20237;-82
2022/01/29 09:32:21;;;;;;;12.30;10.50;;;;;;;6.20;60.51;98922.03;8417296;28;20238;-82
2022/01/29 09:36:24;;;;;;;14.90;11.07;;;;;;;6.61;59.64;98927.59;8435076;28;20226;-82
2022/01/29 09:40:28;;;;;;;12.70;10.40;;;;;;;6.52;59.73;98928.53;8429926;28;20226;-82
2022/01/29 09:44:34;;;;;;;12.80;10.50;;;;;;;6.50;59.82;98922.56;8432653;28;20560;-81
2022/01/29 09:48:38;;;;;;;12.27;10.60;;;;;;;6.69;59.11;98915.44;8430482;28;20234;-82
2022/01/29 09:52:41;;;;;;;11.90;10.67;;;;;;;6.65;59.58;98919.78;8423488;28;20424;-80
2022/01/29 09:56:44;;;;;;;14.87;10.40;;;;;;;6.74;59.05;98916.25;8431061;28;20230;-81
2022/01/29 10:00:48;;;;;;;13.90;10.10;;;;;;;6.73;59.59;98917.09;8433196;28;20237;-80
2022/01/29 10:04:53;;;;;;;19.67;16.30;;;;;;;6.61;59.46;98907.00;8430436;28;20243;-81
2022/01/29 10:08:56;;;;;;;14.13;12.13;;;;;;;6.62;60.01;98904.38;8429671;28;20223;-81
2022/01/29 10:12:59;;;;;;;14.23;11.93;;;;;;;6.65;59.62;98898.34;8429521;28;20226;-81
2022/01/29 10:17:07;;;;;;;10.63;9.50;;;;;;;6.88;63.29;98892.88;8430439;28;20504;-83
2022/01/29 10:21:13;;;;;;;13.27;9.00;;;;;;;6.96;59.20;98890.19;8447464;28;20240;-83
2022/01/29 10:25:18;;;;;;;11.73;9.43;;;;;;;6.96;59.67;98891.03;8447633;28;20238;-82
2022/01/29 10:29:22;;;;;;;9.80;8.80;;;;;;;7.39;59.04;98892.94;8447755;28;20238;-84
2022/01/29 10:33:28;;;;;;;11.07;9.10;;;;;;;7.03;59.45;98891.81;8447636;28;20234;-83
2022/01/29 10:37:31;;;;;;;11.47;8.97;;;;;;;6.83;60.71;98887.81;8445891;28;20221;-84
2022/01/29 10:41:34;;;;;;;11.60;9.80;;;;;;;6.97;60.53;98877.28;8430984;28;20234;-82
2022/01/29 10:45:37;;;;;;;10.57;9.07;;;;;;;6.97;60.47;98877.28;8413419;28;20556;-83
2022/01/29 10:49:51;;;;;;;9.80;8.80;;;;;;;7.04;60.04;98889.22;8412548;28;20238;-83
2022/01/29 10:53:54;;;;;;;10.43;8.90;;;;;;;7.14;60.73;98892.50;8413466;28;20231;-83
2022/01/29 10:57:57;;;;;;;12.63;9.23;;;;;;;6.98;60.91;98891.00;8413977;28;20223;-85
2022/01/29 11:02:02;;;;;;;12.20;9.27;;;;;;;6.89;61.44;98886.00;8413534;28;20291;-85
2022/01/29 11:06:07;;;;;;;9.47;8.43;;;;;;;6.89;61.15;98880.84;8413738;28;20234;-86
2022/01/29 11:10:13;;;;;;;8.77;7.87;;;;;;;7.01;61.05;98878.94;8427078;28;20236;-85
2022/01/29 11:14:20;;;;;;;10.30;8.27;;;;;;;6.92;61.01;98875.66;8429121;28;20275;-85
2022/01/29 11:18:26;;;;;;;11.20;7.77;;;;;;;6.90;60.74;98882.56;8426281;28;20233;-85
2022/01/29 11:22:35;;;;;;;9.13;7.97;;;;;;;7.19;60.32;98866.63;8427972;28;20227;-83
2022/01/29 11:26:39;;;;;;;8.57;7.63;;;;;;;7.19;60.10;98871.78;8428664;28;20227;-83
2022/01/29 11:30:43;;;;;;;8.60;7.60;;;;;;;7.12;60.82;98857.31;8426379;28;20427;-85
2022/01/29 11:35:20;;;;;;;9.00;8.10;;;;;;;7.04;60.58;98847.13;8427102;28;20227;-84
2022/01/29 11:39:25;;;;;;;8.60;7.20;;;;;;;7.04;61.53;98845.41;8428617;28;20230;-84
2022/01/29 11:43:29;;;;;;;7.57;6.67;;;;;;;6.91;61.22;98841.34;8426184;28;20226;-84
2022/01/29 11:47:48;;;;;;;9.50;6.53;;;;;;;7.16;60.26;98818.59;8432048;28;20218;-83
2022/01/29 11:51:52;;;;;;;7.10;6.30;;;;;;;7.00;60.98;98817.16;8443462;28;20328;-83
2022/01/29 11:55:57;;;;;;;7.50;6.17;;;;;;;7.05;60.79;98799.91;8438909;28;20230;-83
2022/01/29 12:00:34;;;;;;;10.87;6.30;;;;;;;7.13;60.40;98797.19;8451519;28;20236;-85
2022/01/29 12:05:04;;;;;;;6.70;6.00;;;;;;;7.30;60.04;98789.19;8451497;28;20550;-84
2022/01/29 12:09:24;;;;;;;9.17;7.30;;;;;;;7.26;60.36;98790.94;8451898;28;20456;-84
2022/01/29 12:13:29;;;;;;;6.67;5.50;;;;;;;7.29;59.96;98767.72;8440506;28;20226;-83
2022/01/29 12:17:43;;;;;;;6.00;5.40;;;;;;;7.15;60.60;98764.53;8434107;28;20518;-87
2022/01/29 12:21:46;;;;;;;6.13;4.93;;;;;;;7.38;59.96;98758.94;8431070;28;20228;-86
2022/01/29 12:25:54;;;;;;;5.43;4.93;;;;;;;7.17;60.67;98753.31;8433396;28;20226;-86
2022/01/29 12:29:59;;;;;;;5.07;4.33;;;;;;;7.42;60.11;98737.41;8433653;28;20231;-87
2022/01/29 12:34:13;;;;;;;11.17;3.83;;;;;;;8.98;81.78;98727.91;8442165;28;20233;-83
2022/01/29 12:38:18;;;;;;;17.33;4.40;;;;;;;9.87;67.81;98719.44;8438679;28;20283;-82
2022/01/29 12:42:30;;;;;;;7.40;4.00;;;;;;;10.10;61.62;98717.91;8432519;28;20226;-81
2022/01/29 12:46:36;;;;;;;4.60;4.00;;;;;;;8.67;56.56;98696.00;8449803;28;20537;-82
2022/01/29 12:50:41;;;;;;;4.40;3.83;;;;;;;8.38;57.46;98689.78;8450521;28;20537;-83
2022/01/29 12:54:52;;;;;;;5.17;4.60;;;;;;;8.26;58.04;98688.31;8450122;28;20231;-83
2022/01/29 12:58:56;;;;;;;4.07;3.67;;;;;;;7.71;59.20;98674.97;8449100;28;20232;-83
2022/01/29 13:03:09;;;;;;;3.50;3.20;;;;;;;7.82;59.30;98659.22;8449586;28;20233;-82
2022/01/29 13:07:12;;;;;;;6.33;4.00;;;;;;;7.77;59.92;98655.94;8449762;28;20233;-86
2022/01/29 13:11:23;;;;;;;4.57;3.77;;;;;;;7.76;59.79;98647.31;8449716;28;20226;-84
2022/01/29 13:15:39;;;;;;;4.63;4.07;;;;;;;7.62;59.96;98644.22;8449732;28;20246;-85
2022/01/29 13:19:45;;;;;;;4.40;3.50;;;;;;;7.69;60.03;98642.34;8449059;28;20237;-86
2022/01/29 13:23:48;;;;;;;5.00;4.20;;;;;;;7.73;59.96;98631.94;8437497;28;20238;-85
2022/01/29 13:27:54;;;;;;;4.03;3.60;;;;;;;7.78;60.18;98632.66;8431723;28;20253;-85
2022/01/29 13:31:57;;;;;;;4.13;3.40;;;;;;;7.75;59.82;98632.75;8433091;28;20230;-85
2022/01/29 13:36:02;;;;;;;4.33;3.33;;;;;;;7.86;59.73;98623.91;8431874;28;20235;-85
2022/01/29 13:40:07;;;;;;;3.13;2.83;;;;;;;7.82;59.65;98630.88;8430833;28;20229;-84
2022/01/29 13:44:11;;;;;;;3.67;3.37;;;;;;;7.95;59.42;98610.81;8426224;28;20248;-84
2022/01/29 13:48:14;;;;;;;3.20;2.77;;;;;;;7.83;59.57;98625.69;8430885;28;20410;-84
2022/01/29 13:52:22;;;;;;;2.93;2.60;;;;;;;7.88;59.58;98620.44;8430602;28;20230;-84
2022/01/29 13:56:27;;;;;;;3.53;3.03;;;;;;;7.78;59.61;98606.03;8429265;28;20230;-85
2022/01/29 14:00:51;;;;;;;3.53;3.00;;;;;;;7.77;59.66;98614.69;8432509;28;20233;-84
2022/01/29 14:05:04;;;;;;;3.10;2.80;;;;;;;7.85;59.84;98605.03;8427744;28;20236;-83
2022/01/29 14:09:20;;;;;;;4.70;2.73;;;;;;;7.62;60.28;98605.56;8430206;28;20557;-85
2022/01/29 14:13:28;;;;;;;3.50;2.40;;;;;;;7.75;60.33;98606.09;8448739;28;20256;-82
2022/01/29 14:17:32;;;;;;;2.17;1.97;;;;;;;7.75;60.10;98593.22;8427047;28;20218;-81
2022/01/29 14:21:36;;;;;;;2.40;2.20;;;;;;;7.66;60.07;98586.56;8443817;28;20222;-81
2022/01/29 14:25:43;;;;;;;2.30;2.10;;;;;;;7.79;60.09;98580.22;8447722;28;20234;-81
2022/01/29 14:29:48;;;;;;;2.27;1.90;;;;;;;7.65;61.06;98569.38;8447248;28;20233;-81
2022/01/29 14:33:55;;;;;;;2.10;1.90;;;;;;;7.71;60.97;98584.72;8446915;28;20240;-81
2022/01/29 14:37:59;;;;;;;2.30;1.80;;;;;;;7.55;61.75;98591.94;8447124;28;20237;-82
2022/01/29 14:42:08;;;;;;;2.60;1.93;;;;;;;7.70;61.46;98592.50;8426739;28;20227;-82
2022/01/29 14:46:11;;;;;;;2.17;1.80;;;;;;;7.68;62.03;98589.09;8413617;28;20239;-82
2022/01/29 14:50:15;;;;;;;2.10;1.67;;;;;;;7.76;61.81;98602.66;8413363;28;20240;-82
2022/01/29 14:54:18;;;;;;;1.87;1.77;;;;;;;7.79;62.01;98593.13;8413677;28;20227;-83
2022/01/29 14:58:23;;;;;;;1.87;1.70;;;;;;;7.74;62.26;98594.94;8413391;28;20238;-83
2022/01/29 15:02:27;;;;;;;2.00;1.60;;;;;;;7.58;62.53;98617.66;8413740;28;20237;-83
2022/01/29 15:06:31;;;;;;;1.97;1.67;;;;;;;7.50;63.27;98604.09;8413881;28;20272;-83
2022/01/29 15:10:35;;;;;;;2.57;2.10;;;;;;;7.60;63.39;98587.53;8413004;28;20223;-82
2022/01/29 15:14:40;;;;;;;2.43;2.00;;;;;;;7.68;63.06;98576.22;8413198;28;20234;-82
2022/01/29 15:18:43;;;;;;;2.33;1.63;;;;;;;7.59;63.63;98579.81;8425768;28;20442;-82
2022/01/29 15:22:46;;;;;;;1.67;1.57;;;;;;;7.76;63.10;98589.75;8449059;28;20230;-82
2022/01/29 15:26:51;;;;;;;2.17;1.80;;;;;;;7.38;64.13;98587.13;8453313;28;20238;-82
2022/01/29 15:30:57;;;;;;;2.23;1.83;;;;;;;7.63;63.88;98581.44;8452723;28;20234;-82
2022/01/29 15:35:00;;;;;;;3.10;2.57;;;;;;;7.61;64.50;98560.00;8452420;28;20226;-82
2022/01/29 15:39:04;;;;;;;3.77;2.10;;;;;;;7.32;65.89;98568.41;8452769;28;20234;-81
2022/01/29 15:43:26;;;;;;;1.73;1.53;;;;;;;7.36;66.39;98531.38;8421460;28;20236;-80
2022/01/29 15:47:30;;;;;;;2.03;1.50;;;;;;;7.00;67.33;98506.38;8418761;28;20227;-80
2022/01/29 15:51:36;;;;;;;1.60;1.30;;;;;;;7.18;67.02;98505.16;8418120;28;20222;-82
2022/01/29 15:55:41;;;;;;;1.53;1.17;;;;;;;7.28;66.79;98503.22;8418473;28;20226;-82
2022/01/29 15:59:44;;;;;;;2.43;1.50;;;;;;;7.30;66.79;98488.56;8429195;28;20225;-81
2022/01/29 16:03:51;;;;;;;2.33;1.80;;;;;;;7.34;65.96;98489.34;8448074;28;20529;-83
2022/01/29 16:07:54;;;;;;;1.83;1.60;;;;;;;7.06;66.79;98497.66;8451629;28;20233;-83
2022/01/29 16:12:00;;;;;;;1.53;1.40;;;;;;;7.17;66.46;98493.13;8451409;28;20226;-83
2022/01/29 16:16:04;;;;;;;1.60;1.50;;;;;;;7.18;65.71;98506.88;8451013;28;20230;-83
2022/01/29 16:20:09;;;;;;;1.87;1.60;;;;;;;7.30;65.18;98519.47;8451130;28;20287;-83
2022/01/29 16:24:14;;;;;;;1.77;1.60;;;;;;;7.31;64.94;98500.56;8451330;28;20249;-83
2022/01/29 16:28:20;;;;;;;1.77;1.67;;;;;;;7.06;65.30;98502.81;8451070;28;20230;-83
2022/01/29 16:32:23;;;;;;;2.47;2.03;;;;;;;7.31;65.06;98479.97;8451071;28;20234;-82
2022/01/29 16:36:27;;;;;;;3.73;2.97;;;;;;;7.31;64.42;98477.38;8450458;28;20234;-82
2022/01/29 16:40:31;;;;;;;4.87;2.60;;;;;;;7.11;64.96;98471.84;8443962;28;20222;-83
2022/01/29 16:44:34;;;;;;;4.27;3.87;;;;;;;7.19;65.19;98490.53;8416360;28;20223;-83
2022/01/29 16:48:37;;;;;;;2.37;2.00;;;;;;;7.06;65.82;98492.53;8415769;28;20239;-83
2022/01/29 16:52:42;;;;;;;5.53;2.30;;;;;;;7.33;64.83;98474.75;8415092;28;20239;-83
2022/01/29 16:56:45;;;;;;;2.20;1.77;;;;;;;7.33;64.95;98488.50;8414970;28;20235;-83
2022/01/29 17:00:49;;;;;;;2.23;1.97;;;;;;;7.12;65.73;98494.13;8414748;28;20553;-83
2022/01/29 17:04:52;;;;;;;3.10;2.20;;;;;;;7.13;65.46;98517.28;8425752;28;20571;-81
2022/01/29 17:08:57;;;;;;;2.30;2.10;;;;;;;7.24;65.22;98541.06;8434213;28;20244;-81
2022/01/29 17:13:01;;;;;;;4.90;2.87;;;;;;;7.39;64.47;98550.19;8428614;28;20552;-82
2022/01/29 17:17:04;;;;;;;2.97;2.30;;;;;;;7.54;64.18;98545.56;8425189;28;20233;-82
2022/01/29 17:21:07;;;;;;;2.80;2.50;;;;;;;7.43;64.27;98551.81;8415357;28;20592;-83
2022/01/29 17:25:12;;;;;;;2.60;2.10;;;;;;;7.51;64.32;98532.78;8414333;28;20222;-83
2022/01/29 17:29:16;;;;;;;2.57;2.37;;;;;;;7.51;64.41;98517.31;8421139;28;20360;-82
2022/01/29 17:33:19;;;;;;;2.47;2.27;;;;;;;7.33;64.93;98506.53;8444372;28;20229;-81
2022/01/29 17:37:22;;;;;;;2.80;2.60;;;;;;;7.38;64.64;98490.97;8414401;28;20242;-81
2022/01/29 17:41:27;;;;;;;4.00;2.67;;;;;;;7.60;64.62;98514.50;8413526;28;20433;-82
2022/01/29 17:45:30;;;;;;;3.17;2.60;;;;;;;7.39;64.98;98493.50;8413227;28;20241;-82
2022/01/29 17:49:33;;;;;;;2.63;2.43;;;;;;;7.43;64.99;98494.28;8373945;28;1157857;-81
2022/01/29 17:53:42;;;;;;;2.30;2.10;;;;;;;7.35;64.90;98503.91;8414749;28;20414;-84
2022/01/29 17:57:46;;;;;;;3.60;2.27;;;;;;;7.40;64.94;98504.66;8414408;28;20235;-82
2022/01/29 18:01:49;;;;;;;2.57;2.30;;;;;;;7.30;65.65;98503.19;8414861;28;20234;-82
2022/01/29 18:05:53;;;;;;;3.23;2.37;;;;;;;7.29;65.32;98493.75;8415006;28;20254;-82
2022/01/29 18:10:01;;;;;;;2.03;1.83;;;;;;;7.44;64.96;98481.38;8414546;28;20230;-82
2022/01/29 18:14:06;;;;;;;2.67;2.20;;;;;;;7.43;64.95;98486.56;8414586;28;20230;-81
2022/01/29 18:18:11;;;;;;;2.53;2.20;;;;;;;7.51;64.76;98476.91;8414361;28;20236;-82
2022/01/29 18:22:20;;;;;;;3.00;2.70;;;;;;;7.75;64.64;98467.75;8414413;28;20308;-81
2022/01/29 18:26:24;;;;;;;3.73;2.50;;;;;;;7.59;65.01;98469.00;8414065;28;20230;-82
2022/01/29 18:30:28;;;;;;;2.40;2.20;;;;;;;7.61;65.01;98472.38;8414497;28;20237;-81
2022/01/29 18:34:31;;;;;;;2.33;2.10;;;;;;;7.64;65.01;98465.41;8413839;28;20230;-81
2022/01/29 18:38:34;;;;;;;2.70;2.10;;;;;;;7.43;65.72;98455.63;8414499;28;20227;-82
2022/01/29 18:42:38;;;;;;;2.47;2.20;;;;;;;7.51;65.69;98456.28;8413982;28;20230;-82
2022/01/29 18:46:43;;;;;;;2.50;2.30;;;;;;;7.46;66.00;98444.41;8446750;28;20242;-83
2022/01/29 18:50:48;;;;;;;2.67;2.47;;;;;;;7.48;66.09;98427.16;8447621;28;20242;-82
2022/01/29 18:54:51;;;;;;;4.33;2.53;;;;;;;7.50;65.68;98431.41;8447669;28;20242;-83
2022/01/29 18:58:54;;;;;;;2.40;2.20;;;;;;;7.40;66.29;98437.66;8452326;28;20237;-83
2022/01/29 19:02:59;;;;;;;2.47;2.10;;;;;;;7.49;66.24;98424.56;8454605;28;20417;-84
2022/01/29 19:07:02;;;;;;;2.07;1.93;;;;;;;7.65;65.46;98414.69;8454290;28;20226;-83
2022/01/29 19:11:09;;;;;;;4.03;2.23;;;;;;;7.54;66.54;98427.00;8448238;28;20250;-83
2022/01/29 19:15:16;;;;;;;1.90;1.80;;;;;;;7.64;66.04;98419.00;8419884;28;20420;-82
2022/01/29 19:19:23;;;;;;;2.40;2.20;;;;;;;7.61;66.32;98434.53;8419849;28;20237;-82